sensor_id;sensor_type;location;lat;lon;timestamp;temperature;humidity
66752;SHT31;53663;42.676;23.238;2024-02-14T00:00:48;5.54;76.31
66752;SHT31;53663;42.676;23.238;2024-02-14T00:03:25;5.48;76.73
66752;SHT31;53663;42.676;23.238;2024-02-14T00:05:52;5.52;76.66
66752;SHT31;53663;42.676;23.238;2024-02-14T00:08:19;5.50;76.82
66752;SHT31;53663;42.676;23.238;2024-02-14T00:10:49;5.58;76.39
66752;SHT31;53663;42.676;23.238;2024-02-14T00:13:16;5.57;76.33
66752;SHT31;53663;42.676;23.238;2024-02-14T00:15:55;5.47;76.46
66752;SHT31;53663;42.676;23.238;2024-02-14T00:18:30;5.52;76.69
66752;SHT31;53663;42.676;23.238;2024-02-14T00:21:01;5.50;76.66
66752;SHT31;53663;42.676;23.238;2024-02-14T00:23:28;5.50;76.66
66752;SHT31;53663;42.676;23.238;2024-02-14T00:25:57;5.37;76.77
66752;SHT31;53663;42.676;23.238;2024-02-14T00:28:27;5.43;77.02
66752;SHT31;53663;42.676;23.238;2024-02-14T00:30:53;5.37;76.94
66752;SHT31;53663;42.676;23.238;2024-02-14T00:33:20;5.44;76.88
66752;SHT31;53663;42.676;23.238;2024-02-14T00:35:47;5.43;76.94
66752;SHT31;53663;42.676;23.238;2024-02-14T00:38:15;5.37;77.22
66752;SHT31;53663;42.676;23.238;2024-02-14T00:40:41;5.39;77.09
66752;SHT31;53663;42.676;23.238;2024-02-14T00:43:08;5.40;77.21
66752;SHT31;53663;42.676;23.238;2024-02-14T00:45:36;5.41;77.07
66752;SHT31;53663;42.676;23.238;2024-02-14T00:48:03;5.47;76.72
66752;SHT31;53663;42.676;23.238;2024-02-14T00:50:31;5.51;76.88
66752;SHT31;53663;42.676;23.238;2024-02-14T00:52:59;5.51;76.66
66752;SHT31;53663;42.676;23.238;2024-02-14T00:55:29;5.40;76.82
66752;SHT31;53663;42.676;23.238;2024-02-14T00:57:58;5.41;77.06
66752;SHT31;53663;42.676;23.238;2024-02-14T01:00:24;5.37;77.02
66752;SHT31;53663;42.676;23.238;2024-02-14T01:02:51;5.44;76.92
66752;SHT31;53663;42.676;23.238;2024-02-14T01:05:47;5.51;76.62
66752;SHT31;53663;42.676;23.238;2024-02-14T01:08:38;5.60;76.02
66752;SHT31;53663;42.676;23.238;2024-02-14T01:11:21;5.61;76.03
66752;SHT31;53663;42.676;23.238;2024-02-14T01:13:57;5.64;75.93
66752;SHT31;53663;42.676;23.238;2024-02-14T01:16:30;5.64;75.77
66752;SHT31;53663;42.676;23.238;2024-02-14T01:18:57;5.48;76.04
66752;SHT31;53663;42.676;23.238;2024-02-14T01:21:28;5.52;76.13
66752;SHT31;53663;42.676;23.238;2024-02-14T01:23:58;5.55;76.13
66752;SHT31;53663;42.676;23.238;2024-02-14T01:26:31;5.55;76.07
66752;SHT31;53663;42.676;23.238;2024-02-14T01:28:58;5.43;76.01
66752;SHT31;53663;42.676;23.238;2024-02-14T01:31:34;5.51;76.11
66752;SHT31;53663;42.676;23.238;2024-02-14T01:34:50;5.44;76.06
66752;SHT31;53663;42.676;23.238;2024-02-14T01:37:22;5.41;76.22
66752;SHT31;53663;42.676;23.238;2024-02-14T01:42:51;5.40;76.26
66752;SHT31;53663;42.676;23.238;2024-02-14T01:48:40;5.48;76.09
66752;SHT31;53663;42.676;23.238;2024-02-14T01:51:11;5.50;76.06
66752;SHT31;53663;42.676;23.238;2024-02-14T01:57:14;5.48;76.18
66752;SHT31;53663;42.676;23.238;2024-02-14T01:59:40;5.50;75.95
66752;SHT31;53663;42.676;23.238;2024-02-14T02:02:10;5.48;75.82
66752;SHT31;53663;42.676;23.238;2024-02-14T02:04:36;5.50;75.72
66752;SHT31;53663;42.676;23.238;2024-02-14T02:07:03;5.47;75.44
66752;SHT31;53663;42.676;23.238;2024-02-14T02:09:39;5.52;75.36
66752;SHT31;53663;42.676;23.238;2024-02-14T02:12:23;5.51;75.54
66752;SHT31;53663;42.676;23.238;2024-02-14T02:14:53;5.47;75.29
66752;SHT31;53663;42.676;23.238;2024-02-14T02:17:23;5.47;75.03
66752;SHT31;53663;42.676;23.238;2024-02-14T02:19:52;5.47;75.00
66752;SHT31;53663;42.676;23.238;2024-02-14T02:22:24;5.47;74.81
66752;SHT31;53663;42.676;23.238;2024-02-14T02:24:54;5.44;74.97
66752;SHT31;53663;42.676;23.238;2024-02-14T02:30:23;5.44;75.03
66752;SHT31;53663;42.676;23.238;2024-02-14T02:32:53;5.41;75.13
66752;SHT31;53663;42.676;23.238;2024-02-14T02:35:31;5.36;75.36
66752;SHT31;53663;42.676;23.238;2024-02-14T02:37:57;5.39;75.20
66752;SHT31;53663;42.676;23.238;2024-02-14T02:40:25;5.37;75.33
66752;SHT31;53663;42.676;23.238;2024-02-14T02:42:56;5.34;75.24
66752;SHT31;53663;42.676;23.238;2024-02-14T02:45:27;5.37;75.13
66752;SHT31;53663;42.676;23.238;2024-02-14T02:47:54;5.36;74.78
66752;SHT31;53663;42.676;23.238;2024-02-14T02:50:25;5.37;74.79
66752;SHT31;53663;42.676;23.238;2024-02-14T02:53:00;5.37;75.00
66752;SHT31;53663;42.676;23.238;2024-02-14T02:55:29;5.41;74.87
66752;SHT31;53663;42.676;23.238;2024-02-14T02:58:02;5.31;74.78
66752;SHT31;53663;42.676;23.238;2024-02-14T03:00:33;5.30;74.45
66752;SHT31;53663;42.676;23.238;2024-02-14T03:03:00;5.26;74.50
66752;SHT31;53663;42.676;23.238;2024-02-14T03:05:38;5.29;74.59
66752;SHT31;53663;42.676;23.238;2024-02-14T03:08:41;5.26;74.71
66752;SHT31;53663;42.676;23.238;2024-02-14T03:11:30;5.31;74.53
66752;SHT31;53663;42.676;23.238;2024-02-14T03:14:21;5.37;74.34
66752;SHT31;53663;42.676;23.238;2024-02-14T03:16:57;5.43;73.89
66752;SHT31;53663;42.676;23.238;2024-02-14T03:19:27;5.33;74.08
66752;SHT31;53663;42.676;23.238;2024-02-14T03:21:54;5.31;74.17
66752;SHT31;53663;42.676;23.238;2024-02-14T03:24:36;5.31;74.00
66752;SHT31;53663;42.676;23.238;2024-02-14T03:34:25;5.31;73.84
66752;SHT31;53663;42.676;23.238;2024-02-14T03:57:54;5.30;73.46
66752;SHT31;53663;42.676;23.238;2024-02-14T04:00:52;5.31;73.46
66752;SHT31;53663;42.676;23.238;2024-02-14T04:03:46;5.24;73.92
66752;SHT31;53663;42.676;23.238;2024-02-14T04:06:34;5.26;73.65
66752;SHT31;53663;42.676;23.238;2024-02-14T04:09:32;5.30;73.68
66752;SHT31;53663;42.676;23.238;2024-02-14T04:12:37;5.24;73.50
66752;SHT31;53663;42.676;23.238;2024-02-14T04:15:38;5.23;73.87
66752;SHT31;53663;42.676;23.238;2024-02-14T04:18:44;5.30;73.93
66752;SHT31;53663;42.676;23.238;2024-02-14T04:21:44;5.27;73.64
66752;SHT31;53663;42.676;23.238;2024-02-14T04:24:13;5.31;73.75
66752;SHT31;53663;42.676;23.238;2024-02-14T04:26:39;5.29;73.66
66752;SHT31;53663;42.676;23.238;2024-02-14T04:29:34;5.30;73.85
66752;SHT31;53663;42.676;23.238;2024-02-14T04:32:19;5.26;73.96
66752;SHT31;53663;42.676;23.238;2024-02-14T04:34:49;5.29;73.75
66752;SHT31;53663;42.676;23.238;2024-02-14T04:37:14;5.26;74.18
66752;SHT31;53663;42.676;23.238;2024-02-14T04:39:44;5.23;73.69
66752;SHT31;53663;42.676;23.238;2024-02-14T04:42:14;5.10;74.17
66752;SHT31;53663;42.676;23.238;2024-02-14T04:44:42;5.15;74.35
66752;SHT31;53663;42.676;23.238;2024-02-14T04:47:22;5.08;74.47
66752;SHT31;53663;42.676;23.238;2024-02-14T04:49:53;5.09;74.74
66752;SHT31;53663;42.676;23.238;2024-02-14T04:52:27;5.08;74.64
66752;SHT31;53663;42.676;23.238;2024-02-14T05:06:08;5.05;74.20
66752;SHT31;53663;42.676;23.238;2024-02-14T05:09:09;5.09;73.89
66752;SHT31;53663;42.676;23.238;2024-02-14T05:11:49;5.05;74.09
66752;SHT31;53663;42.676;23.238;2024-02-14T05:15:04;5.08;73.88
66752;SHT31;53663;42.676;23.238;2024-02-14T05:18:41;5.16;73.66
66752;SHT31;53663;42.676;23.238;2024-02-14T05:21:36;5.15;73.55
66752;SHT31;53663;42.676;23.238;2024-02-14T05:27:42;5.13;73.49
66752;SHT31;53663;42.676;23.238;2024-02-14T06:10:11;5.06;72.81
66752;SHT31;53663;42.676;23.238;2024-02-14T06:27:35;5.05;71.93
66752;SHT31;53663;42.676;23.238;2024-02-14T06:32:55;5.08;71.73
66752;SHT31;53663;42.676;23.238;2024-02-14T06:35:29;5.09;71.48
66752;SHT31;53663;42.676;23.238;2024-02-14T06:37:55;5.15;71.61
66752;SHT31;53663;42.676;23.238;2024-02-14T06:40:42;5.13;71.69
66752;SHT31;53663;42.676;23.238;2024-02-14T06:43:31;5.22;71.32
66752;SHT31;53663;42.676;23.238;2024-02-14T06:46:12;5.26;71.57
66752;SHT31;53663;42.676;23.238;2024-02-14T06:48:44;5.33;70.70
66752;SHT31;53663;42.676;23.238;2024-02-14T06:51:38;5.37;70.62
66752;SHT31;53663;42.676;23.238;2024-02-14T06:54:10;5.41;70.23
66752;SHT31;53663;42.676;23.238;2024-02-14T06:57:04;5.50;70.01
66752;SHT31;53663;42.676;23.238;2024-02-14T06:59:55;5.57;70.07
66752;SHT31;53663;42.676;23.238;2024-02-14T07:02:49;5.68;70.64
66752;SHT31;53663;42.676;23.238;2024-02-14T07:09:18;5.87;69.15
66752;SHT31;53663;42.676;23.238;2024-02-14T07:12:30;5.88;67.98
66752;SHT31;53663;42.676;23.238;2024-02-14T07:15:12;5.85;68.23
66752;SHT31;53663;42.676;23.238;2024-02-14T07:17:41;5.79;68.13
66752;SHT31;53663;42.676;23.238;2024-02-14T07:20:09;5.77;68.19
66752;SHT31;53663;42.676;23.238;2024-02-14T07:22:55;5.79;68.11
66752;SHT31;53663;42.676;23.238;2024-02-14T07:25:24;5.79;67.97
66752;SHT31;53663;42.676;23.238;2024-02-14T07:27:54;5.74;67.88
66752;SHT31;53663;42.676;23.238;2024-02-14T07:30:44;5.72;68.21
66752;SHT31;53663;42.676;23.238;2024-02-14T07:33:26;5.74;67.35
66752;SHT31;53663;42.676;23.238;2024-02-14T07:35:52;5.70;67.71
66752;SHT31;53663;42.676;23.238;2024-02-14T07:38:19;5.71;67.63
66752;SHT31;53663;42.676;23.238;2024-02-14T07:41:11;5.65;68.17
66752;SHT31;53663;42.676;23.238;2024-02-14T07:44:07;5.75;68.47
66752;SHT31;53663;42.676;23.238;2024-02-14T07:46:47;5.75;67.54
66752;SHT31;53663;42.676;23.238;2024-02-14T07:49:44;5.78;67.85
66752;SHT31;53663;42.676;23.238;2024-02-14T07:52:11;5.85;67.84
66752;SHT31;53663;42.676;23.238;2024-02-14T07:54:42;5.84;67.79
66752;SHT31;53663;42.676;23.238;2024-02-14T07:57:26;5.85;67.81
66752;SHT31;53663;42.676;23.238;2024-02-14T07:59:56;5.85;67.88
66752;SHT31;53663;42.676;23.238;2024-02-14T08:02:39;5.88;67.59
66752;SHT31;53663;42.676;23.238;2024-02-14T08:05:24;5.99;67.47
66752;SHT31;53663;42.676;23.238;2024-02-14T08:08:18;5.91;67.39
66752;SHT31;53663;42.676;23.238;2024-02-14T08:11:05;5.91;67.60
66752;SHT31;53663;42.676;23.238;2024-02-14T08:13:57;5.92;67.13
66752;SHT31;53663;42.676;23.238;2024-02-14T08:16:36;5.87;67.60
66752;SHT31;53663;42.676;23.238;2024-02-14T08:19:27;5.88;67.22
66752;SHT31;53663;42.676;23.238;2024-02-14T08:22:11;5.97;67.57
66752;SHT31;53663;42.676;23.238;2024-02-14T08:25:03;5.95;66.90
66752;SHT31;53663;42.676;23.238;2024-02-14T08:28:13;5.97;66.64
66752;SHT31;53663;42.676;23.238;2024-02-14T08:31:14;5.91;66.59
66752;SHT31;53663;42.676;23.238;2024-02-14T08:34:12;5.94;67.06
66752;SHT31;53663;42.676;23.238;2024-02-14T08:36:55;5.94;67.42
66752;SHT31;53663;42.676;23.238;2024-02-14T08:39:34;5.98;67.01
66752;SHT31;53663;42.676;23.238;2024-02-14T08:42:19;5.82;67.28
66752;SHT31;53663;42.676;23.238;2024-02-14T08:45:14;5.82;67.21
66752;SHT31;53663;42.676;23.238;2024-02-14T08:48:00;5.78;67.40
66752;SHT31;53663;42.676;23.238;2024-02-14T08:50:50;5.64;67.31
66752;SHT31;53663;42.676;23.238;2024-02-14T08:53:38;5.61;67.48
66752;SHT31;53663;42.676;23.238;2024-02-14T08:56:13;5.71;67.26
66752;SHT31;53663;42.676;23.238;2024-02-14T08:58:39;5.70;67.36
66752;SHT31;53663;42.676;23.238;2024-02-14T09:01:06;5.78;67.43
66752;SHT31;53663;42.676;23.238;2024-02-14T09:03:55;5.82;68.02
66752;SHT31;53663;42.676;23.238;2024-02-14T09:06:40;5.85;68.91
66752;SHT31;53663;42.676;23.238;2024-02-14T09:09:29;5.78;68.13
66752;SHT31;53663;42.676;23.238;2024-02-14T09:12:08;5.75;68.75
66752;SHT31;53663;42.676;23.238;2024-02-14T09:14:44;5.84;69.26
66752;SHT31;53663;42.676;23.238;2024-02-14T09:17:12;5.72;69.05
66752;SHT31;53663;42.676;23.238;2024-02-14T09:20:03;5.67;69.53
66752;SHT31;53663;42.676;23.238;2024-02-14T09:22:49;5.65;69.72
66752;SHT31;53663;42.676;23.238;2024-02-14T09:25:34;5.65;70.07
66752;SHT31;53663;42.676;23.238;2024-02-14T09:28:25;5.67;70.11
66752;SHT31;53663;42.676;23.238;2024-02-14T09:31:21;5.65;69.73
66752;SHT31;53663;42.676;23.238;2024-02-14T09:34:20;5.61;69.39
66752;SHT31;53663;42.676;23.238;2024-02-14T09:37:07;5.54;69.89
66752;SHT31;53663;42.676;23.238;2024-02-14T09:39:50;5.61;69.02
66752;SHT31;53663;42.676;23.238;2024-02-14T09:42:22;5.60;69.35
66752;SHT31;53663;42.676;23.238;2024-02-14T09:45:20;5.58;68.73
66752;SHT31;53663;42.676;23.238;2024-02-14T09:48:14;5.72;68.68
66752;SHT31;53663;42.676;23.238;2024-02-14T09:51:10;5.57;68.23
66752;SHT31;53663;42.676;23.238;2024-02-14T09:54:00;5.68;67.86
66752;SHT31;53663;42.676;23.238;2024-02-14T09:56:51;5.72;67.64
66752;SHT31;53663;42.676;23.238;2024-02-14T09:59:36;5.78;66.77
66752;SHT31;53663;42.676;23.238;2024-02-14T10:02:16;5.79;67.08
66752;SHT31;53663;42.676;23.238;2024-02-14T10:05:02;5.71;67.28
66752;SHT31;53663;42.676;23.238;2024-02-14T10:07:50;5.84;66.79
66752;SHT31;53663;42.676;23.238;2024-02-14T10:10:17;5.97;66.75
66752;SHT31;53663;42.676;23.238;2024-02-14T10:12:44;5.94;65.54
66752;SHT31;53663;42.676;23.238;2024-02-14T10:15:10;5.94;65.91
66752;SHT31;53663;42.676;23.238;2024-02-14T10:17:36;6.01;66.32
66752;SHT31;53663;42.676;23.238;2024-02-14T10:20:07;6.08;65.64
66752;SHT31;53663;42.676;23.238;2024-02-14T10:22:35;6.05;66.10
66752;SHT31;53663;42.676;23.238;2024-02-14T10:25:03;6.09;66.25
66752;SHT31;53663;42.676;23.238;2024-02-14T10:27:30;6.10;65.81
66752;SHT31;53663;42.676;23.238;2024-02-14T10:30:01;6.13;64.94
66752;SHT31;53663;42.676;23.238;2024-02-14T10:32:27;6.13;65.10
66752;SHT31;53663;42.676;23.238;2024-02-14T10:34:52;6.08;65.25
66752;SHT31;53663;42.676;23.238;2024-02-14T10:37:18;6.26;65.18
66752;SHT31;53663;42.676;23.238;2024-02-14T10:39:46;6.23;65.00
66752;SHT31;53663;42.676;23.238;2024-02-14T10:42:14;6.13;65.42
66752;SHT31;53663;42.676;23.238;2024-02-14T10:44:40;6.20;65.20
66752;SHT31;53663;42.676;23.238;2024-02-14T10:47:08;6.30;65.14
66752;SHT31;53663;42.676;23.238;2024-02-14T10:49:36;6.32;65.46
66752;SHT31;53663;42.676;23.238;2024-02-14T10:52:05;6.36;65.28
66752;SHT31;53663;42.676;23.238;2024-02-14T10:54:35;6.46;65.27
66752;SHT31;53663;42.676;23.238;2024-02-14T10:57:05;6.47;64.71
66752;SHT31;53663;42.676;23.238;2024-02-14T10:59:42;6.46;64.86
66752;SHT31;53663;42.676;23.238;2024-02-14T11:02:11;6.34;64.38
66752;SHT31;53663;42.676;23.238;2024-02-14T11:04:39;6.32;65.24
66752;SHT31;53663;42.676;23.238;2024-02-14T11:07:08;6.25;65.05
66752;SHT31;53663;42.676;23.238;2024-02-14T11:09:38;6.27;64.45
66752;SHT31;53663;42.676;23.238;2024-02-14T11:12:07;6.26;64.30
66752;SHT31;53663;42.676;23.238;2024-02-14T11:14:34;6.23;64.91
66752;SHT31;53663;42.676;23.238;2024-02-14T11:17:14;6.19;65.32
66752;SHT31;53663;42.676;23.238;2024-02-14T11:19:47;6.16;65.71
66752;SHT31;53663;42.676;23.238;2024-02-14T11:22:34;6.09;66.71
66752;SHT31;53663;42.676;23.238;2024-02-14T11:25:15;6.10;67.02
66752;SHT31;53663;42.676;23.238;2024-02-14T11:28:13;6.12;66.98
66752;SHT31;53663;42.676;23.238;2024-02-14T11:30:46;6.16;67.59
66752;SHT31;53663;42.676;23.238;2024-02-14T11:33:32;6.12;67.04
66752;SHT31;53663;42.676;23.238;2024-02-14T11:36:27;6.03;67.63
66752;SHT31;53663;42.676;23.238;2024-02-14T11:39:06;6.03;67.41
66752;SHT31;53663;42.676;23.238;2024-02-14T11:41:56;6.02;67.56
66752;SHT31;53663;42.676;23.238;2024-02-14T11:44:35;5.91;67.47
66752;SHT31;53663;42.676;23.238;2024-02-14T11:47:15;5.95;66.73
66752;SHT31;53663;42.676;23.238;2024-02-14T11:50:09;6.01;66.18
66752;SHT31;53663;42.676;23.238;2024-02-14T11:52:49;6.01;66.01
66752;SHT31;53663;42.676;23.238;2024-02-14T11:55:30;6.05;66.22
66752;SHT31;53663;42.676;23.238;2024-02-14T11:57:58;6.03;66.17
66752;SHT31;53663;42.676;23.238;2024-02-14T12:00:48;6.05;65.98
66752;SHT31;53663;42.676;23.238;2024-02-14T12:03:35;6.03;65.81
66752;SHT31;53663;42.676;23.238;2024-02-14T12:06:05;6.03;66.17
66752;SHT31;53663;42.676;23.238;2024-02-14T12:08:51;5.97;66.41
66752;SHT31;53663;42.676;23.238;2024-02-14T12:11:24;6.01;66.22
66752;SHT31;53663;42.676;23.238;2024-02-14T12:14:17;6.05;66.12
66752;SHT31;53663;42.676;23.238;2024-02-14T12:16:56;6.05;65.67
66752;SHT31;53663;42.676;23.238;2024-02-14T12:19:39;6.09;65.78
66752;SHT31;53663;42.676;23.238;2024-02-14T12:22:20;6.08;65.76
66752;SHT31;53663;42.676;23.238;2024-02-14T12:25:08;6.06;65.85
66752;SHT31;53663;42.676;23.238;2024-02-14T12:31:02;6.09;65.78
66752;SHT31;53663;42.676;23.238;2024-02-14T12:33:41;6.18;65.76
66752;SHT31;53663;42.676;23.238;2024-02-14T12:36:07;6.20;65.55
66752;SHT31;53663;42.676;23.238;2024-02-14T12:38:36;6.19;65.16
66752;SHT31;53663;42.676;23.238;2024-02-14T12:41:01;6.19;65.04
66752;SHT31;53663;42.676;23.238;2024-02-14T12:43:34;6.29;64.26
66752;SHT31;53663;42.676;23.238;2024-02-14T12:46:22;6.34;64.61
66752;SHT31;53663;42.676;23.238;2024-02-14T12:49:16;6.36;64.79
66752;SHT31;53663;42.676;23.238;2024-02-14T12:52:11;6.43;64.26
66752;SHT31;53663;42.676;23.238;2024-02-14T12:55:05;6.44;63.61
66752;SHT31;53663;42.676;23.238;2024-02-14T13:00:25;6.36;64.00
66752;SHT31;53663;42.676;23.238;2024-02-14T13:02:54;6.40;63.78
66752;SHT31;53663;42.676;23.238;2024-02-14T13:05:25;6.40;62.96
66752;SHT31;53663;42.676;23.238;2024-02-14T13:07:52;6.40;62.64
66752;SHT31;53663;42.676;23.238;2024-02-14T13:10:25;6.34;62.79
66752;SHT31;53663;42.676;23.238;2024-02-14T13:12:53;6.27;63.87
66752;SHT31;53663;42.676;23.238;2024-02-14T13:15:32;6.34;63.81
66752;SHT31;53663;42.676;23.238;2024-02-14T13:18:04;6.33;62.58
66752;SHT31;53663;42.676;23.238;2024-02-14T13:20:39;6.34;62.36
66752;SHT31;53663;42.676;23.238;2024-02-14T13:23:42;6.34;62.85
66752;SHT31;53663;42.676;23.238;2024-02-14T13:26:40;6.37;62.35
66752;SHT31;53663;42.676;23.238;2024-02-14T13:29:14;6.43;62.77
66752;SHT31;53663;42.676;23.238;2024-02-14T13:31:46;6.46;62.67
66752;SHT31;53663;42.676;23.238;2024-02-14T13:34:45;6.47;62.19
66752;SHT31;53663;42.676;23.238;2024-02-14T13:37:20;6.54;62.24
66752;SHT31;53663;42.676;23.238;2024-02-14T13:39:47;6.61;62.22
66752;SHT31;53663;42.676;23.238;2024-02-14T13:42:13;6.64;62.30
66752;SHT31;53663;42.676;23.238;2024-02-14T13:44:44;6.71;61.98
66752;SHT31;53663;42.676;23.238;2024-02-14T13:47:10;6.54;62.24
66752;SHT31;53663;42.676;23.238;2024-02-14T13:49:43;6.64;62.22
66752;SHT31;53663;42.676;23.238;2024-02-14T13:52:16;6.63;61.78
66752;SHT31;53663;42.676;23.238;2024-02-14T13:54:44;6.68;61.84
66752;SHT31;53663;42.676;23.238;2024-02-14T13:57:11;6.67;61.96
66752;SHT31;53663;42.676;23.238;2024-02-14T13:59:39;6.70;61.52
66752;SHT31;53663;42.676;23.238;2024-02-14T14:02:25;6.74;61.00
66752;SHT31;53663;42.676;23.238;2024-02-14T14:05:24;6.76;61.10
66752;SHT31;53663;42.676;23.238;2024-02-14T14:08:19;6.85;60.26
66752;SHT31;53663;42.676;23.238;2024-02-14T14:11:09;6.83;60.52
66752;SHT31;53663;42.676;23.238;2024-02-14T14:14:05;6.77;60.84
66752;SHT31;53663;42.676;23.238;2024-02-14T14:16:49;6.66;60.14
66752;SHT31;53663;42.676;23.238;2024-02-14T14:19:15;6.67;60.46
66752;SHT31;53663;42.676;23.238;2024-02-14T14:21:42;6.70;60.77
66752;SHT31;53663;42.676;23.238;2024-02-14T14:24:08;6.76;60.75
66752;SHT31;53663;42.676;23.238;2024-02-14T14:26:34;6.81;60.62
66752;SHT31;53663;42.676;23.238;2024-02-14T14:29:01;6.83;60.51
66752;SHT31;53663;42.676;23.238;2024-02-14T14:31:29;6.84;60.44
66752;SHT31;53663;42.676;23.238;2024-02-14T14:33:55;6.83;60.30
66752;SHT31;53663;42.676;23.238;2024-02-14T14:36:42;6.84;60.50
66752;SHT31;53663;42.676;23.238;2024-02-14T14:39:22;6.88;60.91
66752;SHT31;53663;42.676;23.238;2024-02-14T14:41:58;6.89;61.17
66752;SHT31;53663;42.676;23.238;2024-02-14T14:47:34;6.81;60.78
66752;SHT31;53663;42.676;23.238;2024-02-14T14:50:17;6.70;60.56
66752;SHT31;53663;42.676;23.238;2024-02-14T14:52:47;6.73;60.35
66752;SHT31;53663;42.676;23.238;2024-02-14T14:55:57;6.74;60.27
66752;SHT31;53663;42.676;23.238;2024-02-14T14:58:36;6.60;60.53
66752;SHT31;53663;42.676;23.238;2024-02-14T15:01:19;6.56;60.95
66752;SHT31;53663;42.676;23.238;2024-02-14T15:03:48;6.58;61.01
66752;SHT31;53663;42.676;23.238;2024-02-14T15:06:32;6.58;60.67
66752;SHT31;53663;42.676;23.238;2024-02-14T15:09:16;6.60;60.67
66752;SHT31;53663;42.676;23.238;2024-02-14T15:12:00;6.61;60.23
66752;SHT31;53663;42.676;23.238;2024-02-14T15:14:32;6.58;60.40
66752;SHT31;53663;42.676;23.238;2024-02-14T15:16:57;6.47;60.64
66752;SHT31;53663;42.676;23.238;2024-02-14T15:19:28;6.41;61.38
66752;SHT31;53663;42.676;23.238;2024-02-14T15:22:05;6.37;61.15
66752;SHT31;53663;42.676;23.238;2024-02-14T15:24:34;6.32;61.64
66752;SHT31;53663;42.676;23.238;2024-02-14T15:27:12;6.40;61.36
66752;SHT31;53663;42.676;23.238;2024-02-14T15:29:50;6.29;61.37
66752;SHT31;53663;42.676;23.238;2024-02-14T15:32:43;6.23;61.76
66752;SHT31;53663;42.676;23.238;2024-02-14T15:35:30;6.25;61.49
66752;SHT31;53663;42.676;23.238;2024-02-14T15:38:26;6.19;61.29
66752;SHT31;53663;42.676;23.238;2024-02-14T15:41:05;6.29;61.91
66752;SHT31;53663;42.676;23.238;2024-02-14T15:43:48;6.20;61.67
66752;SHT31;53663;42.676;23.238;2024-02-14T15:46:39;6.13;61.58
66752;SHT31;53663;42.676;23.238;2024-02-14T15:52:22;6.12;61.84
66752;SHT31;53663;42.676;23.238;2024-02-14T15:54:55;6.01;62.13
66752;SHT31;53663;42.676;23.238;2024-02-14T15:57:22;5.99;62.66
66752;SHT31;53663;42.676;23.238;2024-02-14T16:00:06;6.03;62.08
66752;SHT31;53663;42.676;23.238;2024-02-14T16:02:38;6.02;62.74
66752;SHT31;53663;42.676;23.238;2024-02-14T16:05:03;5.98;62.26
66752;SHT31;53663;42.676;23.238;2024-02-14T16:10:23;6.06;61.81
66752;SHT31;53663;42.676;23.238;2024-02-14T16:13:04;6.10;61.54
66752;SHT31;53663;42.676;23.238;2024-02-14T16:15:31;6.03;61.97
66752;SHT31;53663;42.676;23.238;2024-02-14T16:17:59;5.95;61.66
66752;SHT31;53663;42.676;23.238;2024-02-14T16:20:25;5.89;61.92
66752;SHT31;53663;42.676;23.238;2024-02-14T16:22:58;5.89;61.69
66752;SHT31;53663;42.676;23.238;2024-02-14T16:25:38;5.88;61.71
66752;SHT31;53663;42.676;23.238;2024-02-14T16:28:56;5.88;61.79
66752;SHT31;53663;42.676;23.238;2024-02-14T16:32:30;5.85;62.07
66752;SHT31;53663;42.676;23.238;2024-02-14T16:35:17;5.88;62.85
66752;SHT31;53663;42.676;23.238;2024-02-14T16:38:09;5.91;61.72
66752;SHT31;53663;42.676;23.238;2024-02-14T16:41:25;5.91;61.57
66752;SHT31;53663;42.676;23.238;2024-02-14T16:44:11;5.98;61.56
66752;SHT31;53663;42.676;23.238;2024-02-14T16:47:01;5.84;61.38
66752;SHT31;53663;42.676;23.238;2024-02-14T16:50:32;5.89;61.75
66752;SHT31;53663;42.676;23.238;2024-02-14T16:53:07;5.92;61.47
66752;SHT31;53663;42.676;23.238;2024-02-14T16:58:47;5.84;61.57
66752;SHT31;53663;42.676;23.238;2024-02-14T17:01:20;5.88;61.49
66752;SHT31;53663;42.676;23.238;2024-02-14T17:14:46;5.77;61.48
66752;SHT31;53663;42.676;23.238;2024-02-14T17:21:45;5.72;61.40
66752;SHT31;53663;42.676;23.238;2024-02-14T17:24:37;5.64;61.45
66752;SHT31;53663;42.676;23.238;2024-02-14T17:27:58;5.62;61.33
66752;SHT31;53663;42.676;23.238;2024-02-14T17:31:39;5.62;61.68
66752;SHT31;53663;42.676;23.238;2024-02-14T17:34:22;5.57;61.61
66752;SHT31;53663;42.676;23.238;2024-02-14T17:36:57;5.60;61.36
66752;SHT31;53663;42.676;23.238;2024-02-14T17:39:24;5.62;61.57
66752;SHT31;53663;42.676;23.238;2024-02-14T17:41:49;5.55;61.37
66752;SHT31;53663;42.676;23.238;2024-02-14T17:44:15;5.54;61.61
66752;SHT31;53663;42.676;23.238;2024-02-14T17:46:46;5.55;61.82
66752;SHT31;53663;42.676;23.238;2024-02-14T17:49:22;5.50;61.52
66752;SHT31;53663;42.676;23.238;2024-02-14T17:52:05;5.50;60.99
66752;SHT31;53663;42.676;23.238;2024-02-14T17:54:34;5.51;61.25
66752;SHT31;53663;42.676;23.238;2024-02-14T17:57:10;5.46;61.23
66752;SHT31;53663;42.676;23.238;2024-02-14T17:59:43;5.40;61.82
66752;SHT31;53663;42.676;23.238;2024-02-14T18:02:36;5.33;62.14
66752;SHT31;53663;42.676;23.238;2024-02-14T18:05:17;5.34;61.53
66752;SHT31;53663;42.676;23.238;2024-02-14T18:08:11;5.40;61.54
66752;SHT31;53663;42.676;23.238;2024-02-14T18:10:52;5.30;61.62
66752;SHT31;53663;42.676;23.238;2024-02-14T18:13:36;5.31;61.24
66752;SHT31;53663;42.676;23.238;2024-02-14T18:16:23;5.23;61.46
66752;SHT31;53663;42.676;23.238;2024-02-14T18:18:49;5.27;63.06
66752;SHT31;53663;42.676;23.238;2024-02-14T18:21:17;5.34;61.76
66752;SHT31;53663;42.676;23.238;2024-02-14T18:23:46;5.24;61.37
66752;SHT31;53663;42.676;23.238;2024-02-14T18:26:17;5.27;61.78
66752;SHT31;53663;42.676;23.238;2024-02-14T18:28:48;5.23;61.85
66752;SHT31;53663;42.676;23.238;2024-02-14T18:31:23;5.26;61.86
66752;SHT31;53663;42.676;23.238;2024-02-14T18:34:15;5.34;62.03
66752;SHT31;53663;42.676;23.238;2024-02-14T18:36:57;5.33;61.88
66752;SHT31;53663;42.676;23.238;2024-02-14T18:39:32;5.31;61.68
66752;SHT31;53663;42.676;23.238;2024-02-14T18:42:04;5.22;61.51
66752;SHT31;53663;42.676;23.238;2024-02-14T18:47:27;5.31;62.35
66752;SHT31;53663;42.676;23.238;2024-02-14T18:50:06;5.40;62.30
66752;SHT31;53663;42.676;23.238;2024-02-14T18:52:35;5.34;62.20
66752;SHT31;53663;42.676;23.238;2024-02-14T18:55:00;5.34;61.74
66752;SHT31;53663;42.676;23.238;2024-02-14T18:57:28;5.26;61.81
66752;SHT31;53663;42.676;23.238;2024-02-14T19:00:15;5.23;61.67
66752;SHT31;53663;42.676;23.238;2024-02-14T19:03:01;5.18;61.81
66752;SHT31;53663;42.676;23.238;2024-02-14T19:05:28;5.09;61.73
66752;SHT31;53663;42.676;23.238;2024-02-14T19:07:58;5.02;61.82
66752;SHT31;53663;42.676;23.238;2024-02-14T19:10:56;5.02;62.19
66752;SHT31;53663;42.676;23.238;2024-02-14T19:14:15;5.02;62.71
66752;SHT31;53663;42.676;23.238;2024-02-14T19:16:42;5.08;62.14